sensor_id;sensor_type;location;lat;lon;timestamp;P1;durP1;ratioP1;P2;durP2;ratioP2
4674;SDS011;2351;50.812;12.872;2023-04-03T00:00:42;1.13;;;1.03;;
4674;SDS011;2351;50.812;12.872;2023-04-03T00:03:13;1.57;;;0.83;;
4674;SDS011;2351;50.812;12.872;2023-04-03T00:05:47;4.50;;;1.47;;
4674;SDS011;2351;50.812;12.872;2023-04-03T00:08:19;5.73;;;1.63;;
4674;SDS011;2351;50.812;12.872;2023-04-03T00:10:51;3.60;;;1.80;;
4674;SDS011;2351;50.812;12.872;2023-04-03T00:13:22;3.30;;;1.20;;
4674;SDS011;2351;50.812;12.872;2023-04-03T00:15:55;2.67;;;1.50;;
4674;SDS011;2351;50.812;12.872;2023-04-03T00:18:26;4.10;;;1.37;;
4674;SDS011;2351;50.812;12.872;2023-04-03T00:21:00;2.83;;;1.20;;
4674;SDS011;2351;50.812;12.872;2023-04-03T00:23:32;3.80;;;1.67;;
4674;SDS011;2351;50.812;12.872;2023-04-03T00:26:04;2.43;;;1.17;;
4674;SDS011;2351;50.812;12.872;2023-04-03T00:28:36;1.33;;;1.17;;
4674;SDS011;2351;50.812;12.872;2023-04-03T00:31:08;1.53;;;1.43;;
4674;SDS011;2351;50.812;12.872;2023-04-03T00:33:39;3.60;;;1.00;;
4674;SDS011;2351;50.812;12.872;2023-04-03T00:36:13;3.00;;;1.37;;
4674;SDS011;2351;50.812;12.872;2023-04-03T00:38:44;2.07;;;0.93;;
4674;SDS011;2351;50.812;12.872;2023-04-03T00:41:16;1.90;;;1.10;;
4674;SDS011;2351;50.812;12.872;2023-04-03T00:43:48;6.43;;;1.70;;
4674;SDS011;2351;50.812;12.872;2023-04-03T00:46:20;2.33;;;1.20;;
4674;SDS011;2351;50.812;12.872;2023-04-03T00:48:51;3.40;;;1.30;;
4674;SDS011;2351;50.812;12.872;2023-04-03T00:51:24;1.60;;;1.50;;
4674;SDS011;2351;50.812;12.872;2023-04-03T00:53:58;5.30;;;1.77;;
4674;SDS011;2351;50.812;12.872;2023-04-03T00:56:33;3.17;;;1.03;;
4674;SDS011;2351;50.812;12.872;2023-04-03T00:59:08;4.10;;;1.20;;
4674;SDS011;2351;50.812;12.872;2023-04-03T01:01:42;4.63;;;1.60;;
4674;SDS011;2351;50.812;12.872;2023-04-03T01:04:25;2.40;;;0.90;;
4674;SDS011;2351;50.812;12.872;2023-04-03T01:07:00;3.87;;;1.40;;
4674;SDS011;2351;50.812;12.872;2023-04-03T01:09:35;4.40;;;1.57;;
4674;SDS011;2351;50.812;12.872;2023-04-03T01:12:14;3.70;;;0.97;;
4674;SDS011;2351;50.812;12.872;2023-04-03T01:14:49;1.90;;;1.20;;
4674;SDS011;2351;50.812;12.872;2023-04-03T01:17:27;1.10;;;1.00;;
4674;SDS011;2351;50.812;12.872;2023-04-03T01:23:27;4.30;;;1.00;;
4674;SDS011;2351;50.812;12.872;2023-04-03T01:26:08;4.83;;;0.90;;
4674;SDS011;2351;50.812;12.872;2023-04-03T01:28:41;2.13;;;1.03;;
4674;SDS011;2351;50.812;12.872;2023-04-03T01:31:15;6.30;;;2.70;;
4674;SDS011;2351;50.812;12.872;2023-04-03T01:33:54;1.50;;;1.40;;
4674;SDS011;2351;50.812;12.872;2023-04-03T01:36:27;3.20;;;1.50;;
4674;SDS011;2351;50.812;12.872;2023-04-03T01:39:02;1.27;;;1.10;;
4674;SDS011;2351;50.812;12.872;2023-04-03T01:41:34;3.37;;;1.27;;
4674;SDS011;2351;50.812;12.872;2023-04-03T01:44:05;3.30;;;1.67;;
4674;SDS011;2351;50.812;12.872;2023-04-03T01:46:37;2.33;;;0.97;;
4674;SDS011;2351;50.812;12.872;2023-04-03T01:49:10;10.40;;;1.70;;
4674;SDS011;2351;50.812;12.872;2023-04-03T01:51:42;5.23;;;1.40;;
4674;SDS011;2351;50.812;12.872;2023-04-03T01:54:14;4.00;;;1.13;;
4674;SDS011;2351;50.812;12.872;2023-04-03T01:56:46;4.87;;;1.80;;
4674;SDS011;2351;50.812;12.872;2023-04-03T01:59:17;2.03;;;1.43;;
4674;SDS011;2351;50.812;12.872;2023-04-03T02:01:49;1.43;;;0.87;;
4674;SDS011;2351;50.812;12.872;2023-04-03T02:04:22;5.80;;;2.03;;
4674;SDS011;2351;50.812;12.872;2023-04-03T02:06:54;2.87;;;0.90;;
4674;SDS011;2351;50.812;12.872;2023-04-03T02:09:26;2.80;;;1.00;;
4674;SDS011;2351;50.812;12.872;2023-04-03T02:11:57;2.20;;;1.00;;
4674;SDS011;2351;50.812;12.872;2023-04-03T02:14:29;3.23;;;1.20;;
4674;SDS011;2351;50.812;12.872;2023-04-03T02:17:01;1.27;;;1.13;;
4674;SDS011;2351;50.812;12.872;2023-04-03T02:19:39;0.80;;;0.67;;
4674;SDS011;2351;50.812;12.872;2023-04-03T02:22:11;1.73;;;1.20;;
4674;SDS011;2351;50.812;12.872;2023-04-03T02:24:43;3.63;;;1.10;;
4674;SDS011;2351;50.812;12.872;2023-04-03T02:27:15;2.60;;;1.17;;
4674;SDS011;2351;50.812;12.872;2023-04-03T02:29:47;7.13;;;1.40;;
4674;SDS011;2351;50.812;12.872;2023-04-03T02:32:18;3.23;;;1.10;;
4674;SDS011;2351;50.812;12.872;2023-04-03T02:34:51;1.40;;;0.80;;
4674;SDS011;2351;50.812;12.872;2023-04-03T02:37:23;12.90;;;2.00;;
4674;SDS011;2351;50.812;12.872;2023-04-03T02:39:55;3.03;;;1.43;;
4674;SDS011;2351;50.812;12.872;2023-04-03T02:42:27;2.30;;;1.20;;
4674;SDS011;2351;50.812;12.872;2023-04-03T02:44:59;1.83;;;1.57;;
4674;SDS011;2351;50.812;12.872;2023-04-03T02:47:31;1.73;;;1.00;;
4674;SDS011;2351;50.812;12.872;2023-04-03T02:50:05;1.20;;;1.10;;
4674;SDS011;2351;50.812;12.872;2023-04-03T02:52:37;1.73;;;1.30;;
4674;SDS011;2351;50.812;12.872;2023-04-03T02:55:08;4.10;;;2.20;;
4674;SDS011;2351;50.812;12.872;2023-04-03T02:57:45;3.13;;;1.17;;
4674;SDS011;2351;50.812;12.872;2023-04-03T03:00:17;8.23;;;1.60;;
4674;SDS011;2351;50.812;12.872;2023-04-03T03:02:49;1.70;;;1.07;;
4674;SDS011;2351;50.812;12.872;2023-04-03T03:05:22;3.73;;;1.70;;
4674;SDS011;2351;50.812;12.872;2023-04-03T03:07:54;5.17;;;2.03;;
4674;SDS011;2351;50.812;12.872;2023-04-03T03:10:26;1.73;;;1.30;;
4674;SDS011;2351;50.812;12.872;2023-04-03T03:12:58;5.97;;;1.70;;
4674;SDS011;2351;50.812;12.872;2023-04-03T03:15:29;3.80;;;1.10;;
4674;SDS011;2351;50.812;12.872;2023-04-03T03:18:01;1.10;;;1.00;;
4674;SDS011;2351;50.812;12.872;2023-04-03T03:20:34;1.40;;;1.30;;
4674;SDS011;2351;50.812;12.872;2023-04-03T03:23:06;3.47;;;0.87;;
4674;SDS011;2351;50.812;12.872;2023-04-03T03:25:38;1.30;;;0.90;;
4674;SDS011;2351;50.812;12.872;2023-04-03T03:28:10;2.93;;;1.50;;
4674;SDS011;2351;50.812;12.872;2023-04-03T03:30:41;2.60;;;1.00;;
4674;SDS011;2351;50.812;12.872;2023-04-03T03:33:13;1.33;;;1.00;;
4674;SDS011;2351;50.812;12.872;2023-04-03T03:35:47;3.50;;;1.30;;
4674;SDS011;2351;50.812;12.872;2023-04-03T03:38:19;2.40;;;1.67;;
4674;SDS011;2351;50.812;12.872;2023-04-03T03:40:51;2.60;;;1.97;;
4674;SDS011;2351;50.812;12.872;2023-04-03T03:43:23;7.13;;;1.60;;
4674;SDS011;2351;50.812;12.872;2023-04-03T03:45:55;8.50;;;1.23;;
4674;SDS011;2351;50.812;12.872;2023-04-03T03:48:27;1.73;;;1.63;;
4674;SDS011;2351;50.812;12.872;2023-04-03T03:51:00;1.73;;;0.83;;
4674;SDS011;2351;50.812;12.872;2023-04-03T03:53:32;2.70;;;1.60;;
4674;SDS011;2351;50.812;12.872;2023-04-03T03:56:04;3.43;;;1.30;;
4674;SDS011;2351;50.812;12.872;2023-04-03T03:58:36;7.07;;;1.70;;
4674;SDS011;2351;50.812;12.872;2023-04-03T04:01:08;2.63;;;1.60;;
4674;SDS011;2351;50.812;12.872;2023-04-03T04:03:40;1.43;;;1.30;;
4674;SDS011;2351;50.812;12.872;2023-04-03T04:06:13;1.70;;;1.43;;
4674;SDS011;2351;50.812;12.872;2023-04-03T04:08:45;2.60;;;1.40;;
4674;SDS011;2351;50.812;12.872;2023-04-03T04:11:16;4.23;;;1.03;;
4674;SDS011;2351;50.812;12.872;2023-04-03T04:13:49;2.50;;;1.43;;
4674;SDS011;2351;50.812;12.872;2023-04-03T04:16:20;6.20;;;2.00;;
4674;SDS011;2351;50.812;12.872;2023-04-03T04:18:52;3.33;;;1.73;;
4674;SDS011;2351;50.812;12.872;2023-04-03T04:21:25;1.77;;;1.10;;
4674;SDS011;2351;50.812;12.872;2023-04-03T04:23:57;3.77;;;1.23;;
4674;SDS011;2351;50.812;12.872;2023-04-03T04:26:29;3.00;;;1.87;;
4674;SDS011;2351;50.812;12.872;2023-04-03T04:29:00;1.73;;;1.30;;
4674;SDS011;2351;50.812;12.872;2023-04-03T04:31:32;5.13;;;1.67;;
4674;SDS011;2351;50.812;12.872;2023-04-03T04:34:04;4.37;;;1.97;;
4674;SDS011;2351;50.812;12.872;2023-04-03T04:36:37;6.33;;;1.70;;
4674;SDS011;2351;50.812;12.872;2023-04-03T04:39:09;3.53;;;1.77;;
4674;SDS011;2351;50.812;12.872;2023-04-03T04:41:40;1.90;;;1.40;;
4674;SDS011;2351;50.812;12.872;2023-04-03T04:44:12;6.10;;;2.00;;
4674;SDS011;2351;50.812;12.872;2023-04-03T04:46:44;3.27;;;2.20;;
4674;SDS011;2351;50.812;12.872;2023-04-03T04:49:16;7.27;;;2.13;;
4674;SDS011;2351;50.812;12.872;2023-04-03T04:51:49;10.53;;;2.10;;
4674;SDS011;2351;50.812;12.872;2023-04-03T04:54:21;3.03;;;1.50;;
4674;SDS011;2351;50.812;12.872;2023-04-03T04:56:53;4.73;;;1.40;;
4674;SDS011;2351;50.812;12.872;2023-04-03T04:59:25;3.00;;;1.87;;
4674;SDS011;2351;50.812;12.872;2023-04-03T05:01:56;2.43;;;1.60;;
4674;SDS011;2351;50.812;12.872;2023-04-03T05:04:28;5.40;;;2.20;;
4674;SDS011;2351;50.812;12.872;2023-04-03T05:07:01;6.67;;;2.27;;
4674;SDS011;2351;50.812;12.872;2023-04-03T05:09:33;3.80;;;1.40;;
4674;SDS011;2351;50.812;12.872;2023-04-03T05:12:05;2.10;;;1.90;;
4674;SDS011;2351;50.812;12.872;2023-04-03T05:14:37;5.97;;;2.13;;
4674;SDS011;2351;50.812;12.872;2023-04-03T05:17:09;4.63;;;1.67;;
4674;SDS011;2351;50.812;12.872;2023-04-03T05:19:40;3.30;;;1.20;;
4674;SDS011;2351;50.812;12.872;2023-04-03T05:22:14;6.73;;;1.23;;
4674;SDS011;2351;50.812;12.872;2023-04-03T05:24:45;3.90;;;1.03;;
4674;SDS011;2351;50.812;12.872;2023-04-03T05:27:17;5.13;;;1.30;;
4674;SDS011;2351;50.812;12.872;2023-04-03T05:29:49;1.90;;;0.97;;
4674;SDS011;2351;50.812;12.872;2023-04-03T05:32:21;7.00;;;1.10;;
4674;SDS011;2351;50.812;12.872;2023-04-03T05:34:53;1.80;;;1.37;;
4674;SDS011;2351;50.812;12.872;2023-04-03T05:37:26;1.43;;;1.13;;
4674;SDS011;2351;50.812;12.872;2023-04-03T05:39:58;5.40;;;1.27;;
4674;SDS011;2351;50.812;12.872;2023-04-03T05:42:29;2.03;;;1.23;;
4674;SDS011;2351;50.812;12.872;2023-04-03T05:45:01;3.90;;;1.63;;
4674;SDS011;2351;50.812;12.872;2023-04-03T05:47:33;2.30;;;1.67;;
4674;SDS011;2351;50.812;12.872;2023-04-03T05:50:05;4.70;;;1.80;;
4674;SDS011;2351;50.812;12.872;2023-04-03T05:52:40;1.47;;;1.20;;
4674;SDS011;2351;50.812;12.872;2023-04-03T05:55:15;3.40;;;1.00;;
4674;SDS011;2351;50.812;12.872;2023-04-03T05:57:47;4.80;;;1.30;;
4674;SDS011;2351;50.812;12.872;2023-04-03T06:00:19;10.00;;;1.60;;
4674;SDS011;2351;50.812;12.872;2023-04-03T06:02:51;3.03;;;2.07;;
4674;SDS011;2351;50.812;12.872;2023-04-03T06:05:22;3.70;;;1.77;;
4674;SDS011;2351;50.812;12.872;2023-04-03T06:07:56;9.63;;;2.27;;
4674;SDS011;2351;50.812;12.872;2023-04-03T06:10:28;4.80;;;1.70;;
4674;SDS011;2351;50.812;12.872;2023-04-03T06:13:00;7.90;;;2.30;;
4674;SDS011;2351;50.812;12.872;2023-04-03T06:15:32;12.70;;;1.77;;
4674;SDS011;2351;50.812;12.872;2023-04-03T06:18:03;2.43;;;1.13;;
4674;SDS011;2351;50.812;12.872;2023-04-03T06:20:35;10.57;;;2.13;;
4674;SDS011;2351;50.812;12.872;2023-04-03T06:23:08;5.33;;;1.93;;
4674;SDS011;2351;50.812;12.872;2023-04-03T06:25:40;2.50;;;1.83;;
4674;SDS011;2351;50.812;12.872;2023-04-03T06:28:12;2.50;;;2.03;;
4674;SDS011;2351;50.812;12.872;2023-04-03T06:30:44;9.23;;;1.90;;
4674;SDS011;2351;50.812;12.872;2023-04-03T06:33:15;4.13;;;2.10;;
4674;SDS011;2351;50.812;12.872;2023-04-03T06:35:47;2.97;;;1.53;;
4674;SDS011;2351;50.812;12.872;2023-04-03T06:38:20;4.90;;;1.83;;
4674;SDS011;2351;50.812;12.872;2023-04-03T06:40:52;2.33;;;1.23;;
4674;SDS011;2351;50.812;12.872;2023-04-03T06:43:24;9.87;;;2.43;;
4674;SDS011;2351;50.812;12.872;2023-04-03T06:45:56;2.40;;;1.90;;
4674;SDS011;2351;50.812;12.872;2023-04-03T06:48:28;6.23;;;2.07;;
4674;SDS011;2351;50.812;12.872;2023-04-03T06:51:00;2.40;;;2.10;;
4674;SDS011;2351;50.812;12.872;2023-04-03T06:53:33;6.83;;;1.93;;
4674;SDS011;2351;50.812;12.872;2023-04-03T06:56:05;6.40;;;2.53;;
4674;SDS011;2351;50.812;12.872;2023-04-03T06:58:37;5.50;;;2.10;;
4674;SDS011;2351;50.812;12.872;2023-04-03T07:01:08;4.13;;;2.37;;
4674;SDS011;2351;50.812;12.872;2023-04-03T07:03:41;3.47;;;1.90;;
4674;SDS011;2351;50.812;12.872;2023-04-03T07:06:13;6.10;;;2.40;;
4674;SDS011;2351;50.812;12.872;2023-04-03T07:08:48;3.27;;;2.10;;
4674;SDS011;2351;50.812;12.872;2023-04-03T07:11:20;3.50;;;2.33;;
4674;SDS011;2351;50.812;12.872;2023-04-03T07:13:52;3.00;;;2.50;;
4674;SDS011;2351;50.812;12.872;2023-04-03T07:16:24;3.13;;;1.90;;
4674;SDS011;2351;50.812;12.872;2023-04-03T07:18:56;6.10;;;2.60;;
4674;SDS011;2351;50.812;12.872;2023-04-03T07:21:28;2.80;;;1.80;;
4674;SDS011;2351;50.812;12.872;2023-04-03T07:24:02;2.37;;;1.77;;
4674;SDS011;2351;50.812;12.872;2023-04-03T07:26:34;3.53;;;2.60;;
4674;SDS011;2351;50.812;12.872;2023-04-03T07:29:06;3.27;;;2.43;;
4674;SDS011;2351;50.812;12.872;2023-04-03T07:31:39;6.47;;;2.30;;
4674;SDS011;2351;50.812;12.872;2023-04-03T07:34:11;2.57;;;2.37;;
4674;SDS011;2351;50.812;12.872;2023-04-03T07:36:43;2.57;;;2.17;;
4674;SDS011;2351;50.812;12.872;2023-04-03T07:39:16;10.70;;;3.10;;
4674;SDS011;2351;50.812;12.872;2023-04-03T07:41:48;4.13;;;2.30;;
4674;SDS011;2351;50.812;12.872;2023-04-03T07:44:19;6.33;;;2.60;;
4674;SDS011;2351;50.812;12.872;2023-04-03T07:46:51;4.73;;;2.30;;
4674;SDS011;2351;50.812;12.872;2023-04-03T07:49:23;2.40;;;2.20;;
4674;SDS011;2351;50.812;12.872;2023-04-03T07:51:56;3.90;;;2.40;;
4674;SDS011;2351;50.812;12.872;2023-04-03T07:54:30;7.30;;;2.67;;
4674;SDS011;2351;50.812;12.872;2023-04-03T07:57:01;3.93;;;2.33;;
4674;SDS011;2351;50.812;12.872;2023-04-03T07:59:33;4.13;;;2.37;;
4674;SDS011;2351;50.812;12.872;2023-04-03T08:02:07;3.80;;;2.63;;
4674;SDS011;2351;50.812;12.872;2023-04-03T08:04:40;6.30;;;3.10;;
4674;SDS011;2351;50.812;12.872;2023-04-03T08:07:11;4.83;;;2.57;;
4674;SDS011;2351;50.812;12.872;2023-04-03T08:09:44;4.50;;;2.90;;
4674;SDS011;2351;50.812;12.872;2023-04-03T08:12:16;2.27;;;2.07;;
4674;SDS011;2351;50.812;12.872;2023-04-03T08:14:48;5.63;;;3.30;;
4674;SDS011;2351;50.812;12.872;2023-04-03T08:17:21;3.27;;;2.90;;
4674;SDS011;2351;50.812;12.872;2023-04-03T08:19:52;8.60;;;2.80;;
4674;SDS011;2351;50.812;12.872;2023-04-03T08:22:24;8.27;;;3.10;;
4674;SDS011;2351;50.812;12.872;2023-04-03T08:24:57;3.43;;;2.17;;
4674;SDS011;2351;50.812;12.872;2023-04-03T08:27:29;4.13;;;2.97;;
4674;SDS011;2351;50.812;12.872;2023-04-03T08:30:01;5.77;;;2.80;;
4674;SDS011;2351;50.812;12.872;2023-04-03T08:32:34;3.90;;;2.30;;
4674;SDS011;2351;50.812;12.872;2023-04-03T08:35:06;8.03;;;3.00;;
4674;SDS011;2351;50.812;12.872;2023-04-03T08:37:38;2.70;;;2.50;;
4674;SDS011;2351;50.812;12.872;2023-04-03T08:40:14;6.00;;;3.13;;
4674;SDS011;2351;50.812;12.872;2023-04-03T08:42:51;6.10;;;3.00;;
4674;SDS011;2351;50.812;12.872;2023-04-03T08:45:37;4.53;;;2.37;;
4674;SDS011;2351;50.812;12.872;2023-04-03T08:48:17;6.73;;;2.13;;
4674;SDS011;2351;50.812;12.872;2023-04-03T08:50:53;6.23;;;2.90;;
4674;SDS011;2351;50.812;12.872;2023-04-03T08:53:29;9.53;;;2.63;;
4674;SDS011;2351;50.812;12.872;2023-04-03T08:56:06;7.90;;;4.53;;
4674;SDS011;2351;50.812;12.872;2023-04-03T08:58:41;4.60;;;2.50;;
4674;SDS011;2351;50.812;12.872;2023-04-03T09:01:19;14.97;;;2.60;;
4674;SDS011;2351;50.812;12.872;2023-04-03T09:03:54;4.57;;;2.40;;
4674;SDS011;2351;50.812;12.872;2023-04-03T09:06:26;2.10;;;1.50;;
4674;SDS011;2351;50.812;12.872;2023-04-03T09:09:06;2.90;;;2.20;;
4674;SDS011;2351;50.812;12.872;2023-04-03T09:11:47;2.03;;;1.83;;
4674;SDS011;2351;50.812;12.872;2023-04-03T09:14:32;5.90;;;2.30;;
4674;SDS011;2351;50.812;12.872;2023-04-03T09:17:11;10.73;;;2.40;;
4674;SDS011;2351;50.812;12.872;2023-04-03T09:19:49;4.67;;;1.60;;
4674;SDS011;2351;50.812;12.872;2023-04-03T09:22:28;5.13;;;2.70;;
4674;SDS011;2351;50.812;12.872;2023-04-03T09:25:05;2.80;;;2.00;;
4674;SDS011;2351;50.812;12.872;2023-04-03T09:27:44;2.93;;;2.30;;
4674;SDS011;2351;50.812;12.872;2023-04-03T09:30:17;1.70;;;1.57;;
4674;SDS011;2351;50.812;12.872;2023-04-03T09:32:52;11.17;;;2.60;;
4674;SDS011;2351;50.812;12.872;2023-04-03T09:35:26;1.97;;;1.87;;
4674;SDS011;2351;50.812;12.872;2023-04-03T09:38:00;2.23;;;2.13;;
4674;SDS011;2351;50.812;12.872;2023-04-03T09:40:45;3.70;;;1.50;;
4674;SDS011;2351;50.812;12.872;2023-04-03T09:43:25;1.97;;;1.73;;
4674;SDS011;2351;50.812;12.872;2023-04-03T09:48:52;3.53;;;1.90;;
4674;SDS011;2351;50.812;12.872;2023-04-03T09:51:28;3.97;;;1.80;;
4674;SDS011;2351;50.812;12.872;2023-04-03T09:54:01;2.33;;;2.13;;
4674;SDS011;2351;50.812;12.872;2023-04-03T09:57:11;3.77;;;2.50;;
4674;SDS011;2351;50.812;12.872;2023-04-03T09:59:46;7.27;;;1.40;;
4674;SDS011;2351;50.812;12.872;2023-04-03T10:02:33;1.60;;;1.50;;
4674;SDS011;2351;50.812;12.872;2023-04-03T10:08:09;2.70;;;1.73;;
4674;SDS011;2351;50.812;12.872;2023-04-03T10:10:43;3.93;;;1.20;;
4674;SDS011;2351;50.812;12.872;2023-04-03T10:13:20;2.10;;;1.50;;
4674;SDS011;2351;50.812;12.872;2023-04-03T10:15:55;3.73;;;1.30;;
4674;SDS011;2351;50.812;12.872;2023-04-03T10:18:33;1.87;;;1.77;;
4674;SDS011;2351;50.812;12.872;2023-04-03T10:21:14;2.50;;;1.27;;
4674;SDS011;2351;50.812;12.872;2023-04-03T10:23:51;3.03;;;1.60;;
4674;SDS011;2351;50.812;12.872;2023-04-03T10:26:29;2.73;;;1.50;;
4674;SDS011;2351;50.812;12.872;2023-04-03T10:29:10;4.93;;;2.40;;
4674;SDS011;2351;50.812;12.872;2023-04-03T10:31:54;6.70;;;1.80;;
4674;SDS011;2351;50.812;12.872;2023-04-03T10:34:35;4.67;;;2.27;;
4674;SDS011;2351;50.812;12.872;2023-04-03T10:37:12;1.73;;;1.50;;
4674;SDS011;2351;50.812;12.872;2023-04-03T10:39:51;2.97;;;1.43;;
4674;SDS011;2351;50.812;12.872;2023-04-03T10:42:28;2.67;;;1.90;;
4674;SDS011;2351;50.812;12.872;2023-04-03T10:45:08;3.47;;;1.97;;
4674;SDS011;2351;50.812;12.872;2023-04-03T10:47:54;3.60;;;1.63;;
4674;SDS011;2351;50.812;12.872;2023-04-03T10:50:37;6.83;;;1.43;;
4674;SDS011;2351;50.812;12.872;2023-04-03T10:53:15;4.23;;;1.60;;
4674;SDS011;2351;50.812;12.872;2023-04-03T10:55:57;6.60;;;1.50;;
4674;SDS011;2351;50.812;12.872;2023-04-03T10:58:38;1.23;;;1.23;;
4674;SDS011;2351;50.812;12.872;2023-04-03T11:01:14;2.50;;;1.60;;
4674;SDS011;2351;50.812;12.872;2023-04-03T11:03:53;2.27;;;1.57;;
4674;SDS011;2351;50.812;12.872;2023-04-03T11:06:32;2.37;;;1.60;;
4674;SDS011;2351;50.812;12.872;2023-04-03T11:09:11;1.80;;;1.20;;
4674;SDS011;2351;50.812;12.872;2023-04-03T11:11:51;6.00;;;1.50;;
4674;SDS011;2351;50.812;12.872;2023-04-03T11:14:27;2.47;;;1.50;;
4674;SDS011;2351;50.812;12.872;2023-04-03T11:17:04;1.83;;;1.10;;
4674;SDS011;2351;50.812;12.872;2023-04-03T11:19:44;2.00;;;1.40;;
4674;SDS011;2351;50.812;12.872;2023-04-03T11:22:22;1.27;;;1.17;;
4674;SDS011;2351;50.812;12.872;2023-04-03T11:24:58;2.03;;;1.10;;
4674;SDS011;2351;50.812;12.872;2023-04-03T11:27:37;1.47;;;1.10;;
4674;SDS011;2351;50.812;12.872;2023-04-03T11:30:14;5.00;;;1.77;;
4674;SDS011;2351;50.812;12.872;2023-04-03T11:35:55;1.93;;;1.00;;
4674;SDS011;2351;50.812;12.872;2023-04-03T11:38:32;3.10;;;1.70;;
4674;SDS011;2351;50.812;12.872;2023-04-03T11:41:07;4.20;;;1.53;;
4674;SDS011;2351;50.812;12.872;2023-04-03T11:43:41;2.43;;;1.57;;
4674;SDS011;2351;50.812;12.872;2023-04-03T11:55:41;1.20;;;1.07;;
4674;SDS011;2351;50.812;12.872;2023-04-03T11:58:16;4.70;;;2.40;;
4674;SDS011;2351;50.812;12.872;2023-04-03T12:00:52;1.97;;;1.43;;
4674;SDS011;2351;50.812;12.872;2023-04-03T12:03:30;0.97;;;0.87;;
4674;SDS011;2351;50.812;12.872;2023-04-03T12:09:33;2.37;;;0.67;;
4674;SDS011;2351;50.812;12.872;2023-04-03T12:12:29;1.57;;;1.00;;
4674;SDS011;2351;50.812;12.872;2023-04-03T12:24:39;6.40;;;1.50;;
4674;SDS011;2351;50.812;12.872;2023-04-03T12:27:22;1.03;;;1.03;;
4674;SDS011;2351;50.812;12.872;2023-04-03T12:30:01;0.90;;;0.53;;
4674;SDS011;2351;50.812;12.872;2023-04-03T12:35:47;2.63;;;1.10;;
4674;SDS011;2351;50.812;12.872;2023-04-03T12:38:41;1.23;;;0.70;;
4674;SDS011;2351;50.812;12.872;2023-04-03T12:41:27;1.57;;;0.67;;
4674;SDS011;2351;50.812;12.872;2023-04-03T12:44:15;0.70;;;0.70;;
4674;SDS011;2351;50.812;12.872;2023-04-03T12:46:59;1.37;;;0.70;;
4674;SDS011;2351;50.812;12.872;2023-04-03T12:49:33;2.00;;;0.93;;
4674;SDS011;2351;50.812;12.872;2023-04-03T12:52:16;2.30;;;1.17;;
4674;SDS011;2351;50.812;12.872;2023-04-03T12:54:51;3.40;;;1.10;;
4674;SDS011;2351;50.812;12.872;2023-04-03T12:57:25;1.63;;;1.53;;
4674;SDS011;2351;50.812;12.872;2023-04-03T12:59:58;2.10;;;1.07;;
4674;SDS011;2351;50.812;12.872;2023-04-03T13:02:31;0.80;;;0.60;;
4674;SDS011;2351;50.812;12.872;2023-04-03T13:05:05;0.97;;;0.70;;
4674;SDS011;2351;50.812;12.872;2023-04-03T13:07:39;8.03;;;0.87;;
4674;SDS011;2351;50.812;12.872;2023-04-03T13:10:15;1.20;;;1.00;;
4674;SDS011;2351;50.812;12.872;2023-04-03T13:12:51;1.70;;;0.90;;
4674;SDS011;2351;50.812;12.872;2023-04-03T13:15:26;3.37;;;0.90;;
4674;SDS011;2351;50.812;12.872;2023-04-03T13:18:00;5.20;;;1.23;;
4674;SDS011;2351;50.812;12.872;2023-04-03T13:20:32;0.80;;;0.80;;
4674;SDS011;2351;50.812;12.872;2023-04-03T13:23:07;1.73;;;0.70;;
4674;SDS011;2351;50.812;12.872;2023-04-03T13:25:43;2.60;;;0.97;;
4674;SDS011;2351;50.812;12.872;2023-04-03T13:28:19;7.43;;;1.00;;
4674;SDS011;2351;50.812;12.872;2023-04-03T13:30:55;1.83;;;1.30;;
4674;SDS011;2351;50.812;12.872;2023-04-03T13:33:32;2.10;;;1.20;;
4674;SDS011;2351;50.812;12.872;2023-04-03T13:36:08;1.20;;;1.00;;
4674;SDS011;2351;50.812;12.872;2023-04-03T13:38:57;1.30;;;0.87;;
4674;SDS011;2351;50.812;12.872;2023-04-03T13:41:30;2.40;;;1.30;;
4674;SDS011;2351;50.812;12.872;2023-04-03T13:47:16;1.37;;;1.00;;
4674;SDS011;2351;50.812;12.872;2023-04-03T13:49:59;4.17;;;0.90;;
4674;SDS011;2351;50.812;12.872;2023-04-03T13:52:33;1.53;;;0.90;;
4674;SDS011;2351;50.812;12.872;2023-04-03T13:55:16;1.33;;;0.87;;
4674;SDS011;2351;50.812;12.872;2023-04-03T13:57:54;0.70;;;0.70;;
4674;SDS011;2351;50.812;12.872;2023-04-03T14:00:31;4.00;;;1.80;;
4674;SDS011;2351;50.812;12.872;2023-04-03T14:03:13;7.77;;;2.80;;
4674;SDS011;2351;50.812;12.872;2023-04-03T14:05:50;2.43;;;1.37;;
4674;SDS011;2351;50.812;12.872;2023-04-03T14:08:22;1.47;;;1.37;;
4674;SDS011;2351;50.812;12.872;2023-04-03T14:10:53;5.77;;;2.00;;
4674;SDS011;2351;50.812;12.872;2023-04-03T14:13:25;1.97;;;1.00;;
4674;SDS011;2351;50.812;12.872;2023-04-03T14:15:59;1.30;;;1.07;;
4674;SDS011;2351;50.812;12.872;2023-04-03T14:18:31;2.00;;;1.20;;
4674;SDS011;2351;50.812;12.872;2023-04-03T14:21:02;1.20;;;1.10;;
4674;SDS011;2351;50.812;12.872;2023-04-03T14:23:34;0.60;;;0.60;;
4674;SDS011;2351;50.812;12.872;2023-04-03T14:26:08;2.00;;;1.40;;
4674;SDS011;2351;50.812;12.872;2023-04-03T14:28:43;3.67;;;1.17;;
4674;SDS011;2351;50.812;12.872;2023-04-03T14:31:16;1.80;;;1.23;;
4674;SDS011;2351;50.812;12.872;2023-04-03T14:33:49;3.13;;;1.23;;
4674;SDS011;2351;50.812;12.872;2023-04-03T14:36:21;1.00;;;0.87;;
4674;SDS011;2351;50.812;12.872;2023-04-03T14:38:55;2.30;;;1.37;;
4674;SDS011;2351;50.812;12.872;2023-04-03T14:41:27;1.43;;;0.90;;
4674;SDS011;2351;50.812;12.872;2023-04-03T14:43:59;2.83;;;0.97;;
4674;SDS011;2351;50.812;12.872;2023-04-03T14:46:33;2.73;;;1.10;;
4674;SDS011;2351;50.812;12.872;2023-04-03T14:49:08;1.73;;;1.07;;
4674;SDS011;2351;50.812;12.872;2023-04-03T14:51:45;6.93;;;2.53;;
4674;SDS011;2351;50.812;12.872;2023-04-03T14:54:18;5.13;;;1.37;;
4674;SDS011;2351;50.812;12.872;2023-04-03T14:56:55;1.90;;;1.43;;
4674;SDS011;2351;50.812;12.872;2023-04-03T14:59:28;1.23;;;1.07;;
4674;SDS011;2351;50.812;12.872;2023-04-03T15:02:05;5.33;;;1.17;;
4674;SDS011;2351;50.812;12.872;2023-04-03T15:04:54;2.00;;;1.30;;
4674;SDS011;2351;50.812;12.872;2023-04-03T15:07:26;1.00;;;0.80;;
4674;SDS011;2351;50.812;12.872;2023-04-03T15:10:00;2.30;;;1.23;;
4674;SDS011;2351;50.812;12.872;2023-04-03T15:12:34;1.57;;;1.40;;
4674;SDS011;2351;50.812;12.872;2023-04-03T15:15:06;3.07;;;1.10;;
4674;SDS011;2351;50.812;12.872;2023-04-03T15:17:40;3.43;;;1.70;;
4674;SDS011;2351;50.812;12.872;2023-04-03T15:20:13;2.00;;;0.90;;
4674;SDS011;2351;50.812;12.872;2023-04-03T15:22:46;2.10;;;1.10;;
4674;SDS011;2351;50.812;12.872;2023-04-03T15:25:18;1.87;;;0.70;;
4674;SDS011;2351;50.812;12.872;2023-04-03T15:27:49;2.07;;;1.60;;
4674;SDS011;2351;50.812;12.872;2023-04-03T15:30:21;1.10;;;0.90;;
4674;SDS011;2351;50.812;12.872;2023-04-03T15:32:54;3.13;;;1.30;;
4674;SDS011;2351;50.812;12.872;2023-04-03T15:35:26;2.17;;;1.43;;
4674;SDS011;2351;50.812;12.872;2023-04-03T15:37:58;1.30;;;1.20;;
4674;SDS011;2351;50.812;12.872;2023-04-03T15:40:30;4.90;;;1.10;;
4674;SDS011;2351;50.812;12.872;2023-04-03T15:43:01;2.03;;;1.10;;
4674;SDS011;2351;50.812;12.872;2023-04-03T15:45:33;5.03;;;2.10;;
4674;SDS011;2351;50.812;12.872;2023-04-03T15:48:09;2.70;;;1.20;;
4674;SDS011;2351;50.812;12.872;2023-04-03T15:50:41;1.77;;;0.80;;
4674;SDS011;2351;50.812;12.872;2023-04-03T15:53:13;4.00;;;1.80;;
4674;SDS011;2351;50.812;12.872;2023-04-03T15:55:45;1.00;;;0.60;;
4674;SDS011;2351;50.812;12.872;2023-04-03T15:58:17;2.53;;;1.00;;
4674;SDS011;2351;50.812;12.872;2023-04-03T16:00:48;1.27;;;1.00;;
4674;SDS011;2351;50.812;12.872;2023-04-03T16:03:21;3.00;;;1.00;;
4674;SDS011;2351;50.812;12.872;2023-04-03T16:05:54;1.80;;;1.27;;
4674;SDS011;2351;50.812;12.872;2023-04-03T16:08:26;3.30;;;1.27;;
4674;SDS011;2351;50.812;12.872;2023-04-03T16:10:58;4.90;;;1.60;;
4674;SDS011;2351;50.812;12.872;2023-04-03T16:13:30;2.00;;;1.33;;
4674;SDS011;2351;50.812;12.872;2023-04-03T16:16:03;2.37;;;1.27;;
4674;SDS011;2351;50.812;12.872;2023-04-03T16:18:37;4.87;;;1.00;;
4674;SDS011;2351;50.812;12.872;2023-04-03T16:21:09;2.60;;;1.20;;
4674;SDS011;2351;50.812;12.872;2023-04-03T16:23:41;1.20;;;0.80;;